sensor_id;sensor_type;location;lat;lon;timestamp;P1;durP1;ratioP1;P2;durP2;ratioP2
49784;SDS011;35679;38.732;-121.358;2022-12-07T00:00:11;2.67;;;2.47;;
49784;SDS011;35679;38.732;-121.358;2022-12-07T00:03:01;2.33;;;2.22;;
49784;SDS011;35679;38.732;-121.358;2022-12-07T00:05:51;2.55;;;2.45;;
49784;SDS011;35679;38.732;-121.358;2022-12-07T00:08:42;2.30;;;2.20;;
49784;SDS011;35679;38.732;-121.358;2022-12-07T00:11:33;2.45;;;2.28;;
49784;SDS011;35679;38.732;-121.358;2022-12-07T00:14:23;2.35;;;2.25;;
49784;SDS011;35679;38.732;-121.358;2022-12-07T00:17:14;2.67;;;2.58;;
49784;SDS011;35679;38.732;-121.358;2022-12-07T00:20:04;2.58;;;2.47;;
49784;SDS011;35679;38.732;-121.358;2022-12-07T00:22:55;2.58;;;2.47;;
49784;SDS011;35679;38.732;-121.358;2022-12-07T00:25:45;2.33;;;2.22;;
49784;SDS011;35679;38.732;-121.358;2022-12-07T00:28:38;2.60;;;2.50;;
49784;SDS011;35679;38.732;-121.358;2022-12-07T00:31:30;2.47;;;2.38;;
49784;SDS011;35679;38.732;-121.358;2022-12-07T00:34:24;3.05;;;2.85;;
49784;SDS011;35679;38.732;-121.358;2022-12-07T00:37:15;2.40;;;2.30;;
49784;SDS011;35679;38.732;-121.358;2022-12-07T00:40:14;2.45;;;2.35;;
49784;SDS011;35679;38.732;-121.358;2022-12-07T00:43:04;3.00;;;2.80;;
49784;SDS011;35679;38.732;-121.358;2022-12-07T00:45:54;2.45;;;2.35;;
49784;SDS011;35679;38.732;-121.358;2022-12-07T00:48:44;2.70;;;2.60;;
49784;SDS011;35679;38.732;-121.358;2022-12-07T00:51:36;2.65;;;2.50;;
49784;SDS011;35679;38.732;-121.358;2022-12-07T00:54:25;2.70;;;2.60;;
49784;SDS011;35679;38.732;-121.358;2022-12-07T00:57:16;2.33;;;2.22;;
49784;SDS011;35679;38.732;-121.358;2022-12-07T01:00:06;2.80;;;2.70;;
49784;SDS011;35679;38.732;-121.358;2022-12-07T01:02:57;2.75;;;2.58;;
49784;SDS011;35679;38.732;-121.358;2022-12-07T01:05:50;2.65;;;2.30;;
49784;SDS011;35679;38.732;-121.358;2022-12-07T01:08:43;2.40;;;2.30;;
49784;SDS011;35679;38.732;-121.358;2022-12-07T01:11:34;2.58;;;2.47;;
49784;SDS011;35679;38.732;-121.358;2022-12-07T01:14:26;2.30;;;2.20;;
49784;SDS011;35679;38.732;-121.358;2022-12-07T01:17:16;2.47;;;2.38;;
49784;SDS011;35679;38.732;-121.358;2022-12-07T01:20:07;2.05;;;1.95;;
49784;SDS011;35679;38.732;-121.358;2022-12-07T01:22:58;2.40;;;2.30;;
49784;SDS011;35679;38.732;-121.358;2022-12-07T01:25:57;2.65;;;2.55;;
49784;SDS011;35679;38.732;-121.358;2022-12-07T01:28:49;2.40;;;2.30;;
49784;SDS011;35679;38.732;-121.358;2022-12-07T01:31:41;2.40;;;2.30;;
49784;SDS011;35679;38.732;-121.358;2022-12-07T01:34:31;2.60;;;2.50;;
49784;SDS011;35679;38.732;-121.358;2022-12-07T01:37:21;2.95;;;2.83;;
49784;SDS011;35679;38.732;-121.358;2022-12-07T01:40:14;2.72;;;2.55;;
49784;SDS011;35679;38.732;-121.358;2022-12-07T01:43:08;2.50;;;2.40;;
49784;SDS011;35679;38.732;-121.358;2022-12-07T01:46:08;2.40;;;2.30;;
49784;SDS011;35679;38.732;-121.358;2022-12-07T01:48:59;2.40;;;2.30;;
49784;SDS011;35679;38.732;-121.358;2022-12-07T01:51:51;2.70;;;2.60;;
49784;SDS011;35679;38.732;-121.358;2022-12-07T01:54:47;2.53;;;2.42;;
49784;SDS011;35679;38.732;-121.358;2022-12-07T01:57:43;2.75;;;2.65;;
49784;SDS011;35679;38.732;-121.358;2022-12-07T02:00:38;2.40;;;2.30;;
49784;SDS011;35679;38.732;-121.358;2022-12-07T02:03:39;2.50;;;2.40;;
49784;SDS011;35679;38.732;-121.358;2022-12-07T02:06:32;2.33;;;2.22;;
49784;SDS011;35679;38.732;-121.358;2022-12-07T02:12:16;2.88;;;2.78;;
49784;SDS011;35679;38.732;-121.358;2022-12-07T02:15:10;2.60;;;2.50;;
49784;SDS011;35679;38.732;-121.358;2022-12-07T02:18:14;2.70;;;2.50;;
49784;SDS011;35679;38.732;-121.358;2022-12-07T02:21:20;2.30;;;2.20;;
49784;SDS011;35679;38.732;-121.358;2022-12-07T02:27:44;2.60;;;2.50;;
49784;SDS011;35679;38.732;-121.358;2022-12-07T02:30:54;2.50;;;2.40;;
49784;SDS011;35679;38.732;-121.358;2022-12-07T02:33:50;2.67;;;2.58;;
49784;SDS011;35679;38.732;-121.358;2022-12-07T02:36:50;2.45;;;2.35;;
49784;SDS011;35679;38.732;-121.358;2022-12-07T02:39:54;2.50;;;2.40;;
49784;SDS011;35679;38.732;-121.358;2022-12-07T02:42:50;2.75;;;2.65;;
49784;SDS011;35679;38.732;-121.358;2022-12-07T02:45:49;2.40;;;2.30;;
49784;SDS011;35679;38.732;-121.358;2022-12-07T02:48:46;2.53;;;2.42;;
49784;SDS011;35679;38.732;-121.358;2022-12-07T02:51:39;2.30;;;2.20;;
49784;SDS011;35679;38.732;-121.358;2022-12-07T02:54:31;2.60;;;2.50;;
49784;SDS011;35679;38.732;-121.358;2022-12-07T02:57:25;2.45;;;2.35;;
49784;SDS011;35679;38.732;-121.358;2022-12-07T03:00:29;2.22;;;2.13;;
49784;SDS011;35679;38.732;-121.358;2022-12-07T03:03:28;2.58;;;2.47;;
49784;SDS011;35679;38.732;-121.358;2022-12-07T03:06:23;2.75;;;2.65;;
49784;SDS011;35679;38.732;-121.358;2022-12-07T03:09:38;2.80;;;2.70;;
49784;SDS011;35679;38.732;-121.358;2022-12-07T03:13:05;2.42;;;2.22;;
49784;SDS011;35679;38.732;-121.358;2022-12-07T03:15:58;2.58;;;2.47;;
49784;SDS011;35679;38.732;-121.358;2022-12-07T03:19:20;2.50;;;2.40;;
49784;SDS011;35679;38.732;-121.358;2022-12-07T03:22:13;2.60;;;2.50;;
49784;SDS011;35679;38.732;-121.358;2022-12-07T03:25:08;2.78;;;2.58;;
49784;SDS011;35679;38.732;-121.358;2022-12-07T03:28:03;2.40;;;2.30;;
49784;SDS011;35679;38.732;-121.358;2022-12-07T03:30:57;2.50;;;2.40;;
49784;SDS011;35679;38.732;-121.358;2022-12-07T03:34:03;2.50;;;2.40;;
49784;SDS011;35679;38.732;-121.358;2022-12-07T03:37:08;3.53;;;3.40;;
49784;SDS011;35679;38.732;-121.358;2022-12-07T03:40:11;2.70;;;2.50;;
49784;SDS011;35679;38.732;-121.358;2022-12-07T03:43:03;2.80;;;2.70;;
49784;SDS011;35679;38.732;-121.358;2022-12-07T03:52:03;2.80;;;2.60;;
49784;SDS011;35679;38.732;-121.358;2022-12-07T03:55:18;2.40;;;2.30;;
49784;SDS011;35679;38.732;-121.358;2022-12-07T03:58:11;3.00;;;2.90;;
49784;SDS011;35679;38.732;-121.358;2022-12-07T04:01:05;2.40;;;2.30;;
49784;SDS011;35679;38.732;-121.358;2022-12-07T04:03:55;2.40;;;2.30;;
49784;SDS011;35679;38.732;-121.358;2022-12-07T04:06:46;2.60;;;2.40;;
49784;SDS011;35679;38.732;-121.358;2022-12-07T04:09:36;2.35;;;2.25;;
49784;SDS011;35679;38.732;-121.358;2022-12-07T04:12:27;2.38;;;2.25;;
49784;SDS011;35679;38.732;-121.358;2022-12-07T04:15:17;2.60;;;2.40;;
49784;SDS011;35679;38.732;-121.358;2022-12-07T04:18:07;2.15;;;2.08;;
49784;SDS011;35679;38.732;-121.358;2022-12-07T04:20:58;2.70;;;2.53;;
49784;SDS011;35679;38.732;-121.358;2022-12-07T04:23:49;2.30;;;2.20;;
49784;SDS011;35679;38.732;-121.358;2022-12-07T04:26:39;2.67;;;2.47;;
49784;SDS011;35679;38.732;-121.358;2022-12-07T04:29:30;2.63;;;2.53;;
49784;SDS011;35679;38.732;-121.358;2022-12-07T04:32:20;2.58;;;2.47;;
49784;SDS011;35679;38.732;-121.358;2022-12-07T04:35:10;2.30;;;2.20;;
49784;SDS011;35679;38.732;-121.358;2022-12-07T04:38:01;2.40;;;2.30;;
49784;SDS011;35679;38.732;-121.358;2022-12-07T04:40:52;2.70;;;2.50;;
49784;SDS011;35679;38.732;-121.358;2022-12-07T04:43:43;2.45;;;2.30;;
49784;SDS011;35679;38.732;-121.358;2022-12-07T04:46:33;2.30;;;2.10;;
49784;SDS011;35679;38.732;-121.358;2022-12-07T04:49:24;2.42;;;2.33;;
49784;SDS011;35679;38.732;-121.358;2022-12-07T04:52:15;2.25;;;2.15;;
49784;SDS011;35679;38.732;-121.358;2022-12-07T04:55:07;2.53;;;2.42;;
49784;SDS011;35679;38.732;-121.358;2022-12-07T04:57:57;2.63;;;2.42;;
49784;SDS011;35679;38.732;-121.358;2022-12-07T05:00:55;3.10;;;2.88;;
49784;SDS011;35679;38.732;-121.358;2022-12-07T05:03:45;2.90;;;2.70;;
49784;SDS011;35679;38.732;-121.358;2022-12-07T05:06:36;2.85;;;2.65;;
49784;SDS011;35679;38.732;-121.358;2022-12-07T05:09:27;2.90;;;2.70;;
49784;SDS011;35679;38.732;-121.358;2022-12-07T05:12:17;3.17;;;2.88;;
49784;SDS011;35679;38.732;-121.358;2022-12-07T05:15:09;3.15;;;2.95;;
49784;SDS011;35679;38.732;-121.358;2022-12-07T05:18:00;3.80;;;3.33;;
49784;SDS011;35679;38.732;-121.358;2022-12-07T05:20:53;3.33;;;3.03;;
49784;SDS011;35679;38.732;-121.358;2022-12-07T05:23:44;3.95;;;3.15;;
49784;SDS011;35679;38.732;-121.358;2022-12-07T05:26:35;4.32;;;3.17;;
49784;SDS011;35679;38.732;-121.358;2022-12-07T05:29:26;5.10;;;3.45;;
49784;SDS011;35679;38.732;-121.358;2022-12-07T05:32:17;3.10;;;2.90;;
49784;SDS011;35679;38.732;-121.358;2022-12-07T05:35:08;3.40;;;3.10;;
49784;SDS011;35679;38.732;-121.358;2022-12-07T05:37:59;4.55;;;3.08;;
49784;SDS011;35679;38.732;-121.358;2022-12-07T05:40:49;3.42;;;3.13;;
49784;SDS011;35679;38.732;-121.358;2022-12-07T05:43:40;3.88;;;3.30;;
49784;SDS011;35679;38.732;-121.358;2022-12-07T05:46:31;3.70;;;3.33;;
49784;SDS011;35679;38.732;-121.358;2022-12-07T05:49:21;3.95;;;3.58;;
49784;SDS011;35679;38.732;-121.358;2022-12-07T05:52:12;3.75;;;3.45;;
49784;SDS011;35679;38.732;-121.358;2022-12-07T05:55:03;4.10;;;3.53;;
49784;SDS011;35679;38.732;-121.358;2022-12-07T05:57:53;3.50;;;3.20;;
49784;SDS011;35679;38.732;-121.358;2022-12-07T06:01:02;3.50;;;3.20;;
49784;SDS011;35679;38.732;-121.358;2022-12-07T06:03:52;3.92;;;3.55;;
49784;SDS011;35679;38.732;-121.358;2022-12-07T06:06:43;3.75;;;3.45;;
49784;SDS011;35679;38.732;-121.358;2022-12-07T06:09:33;3.20;;;3.00;;
49784;SDS011;35679;38.732;-121.358;2022-12-07T06:12:25;3.80;;;3.40;;
49784;SDS011;35679;38.732;-121.358;2022-12-07T06:15:26;4.72;;;3.50;;
49784;SDS011;35679;38.732;-121.358;2022-12-07T06:18:16;4.10;;;3.72;;
49784;SDS011;35679;38.732;-121.358;2022-12-07T06:21:07;4.03;;;3.63;;
49784;SDS011;35679;38.732;-121.358;2022-12-07T06:23:57;3.78;;;3.40;;
49784;SDS011;35679;38.732;-121.358;2022-12-07T06:26:48;3.70;;;3.40;;
49784;SDS011;35679;38.732;-121.358;2022-12-07T06:29:39;3.90;;;3.53;;
49784;SDS011;35679;38.732;-121.358;2022-12-07T06:32:29;5.30;;;3.53;;
49784;SDS011;35679;38.732;-121.358;2022-12-07T06:35:19;4.03;;;3.58;;
49784;SDS011;35679;38.732;-121.358;2022-12-07T06:38:10;4.78;;;4.00;;
49784;SDS011;35679;38.732;-121.358;2022-12-07T06:41:01;4.15;;;3.55;;
49784;SDS011;35679;38.732;-121.358;2022-12-07T06:43:52;3.97;;;3.40;;
49784;SDS011;35679;38.732;-121.358;2022-12-07T06:46:44;3.65;;;3.35;;
49784;SDS011;35679;38.732;-121.358;2022-12-07T06:49:35;4.30;;;3.90;;
49784;SDS011;35679;38.732;-121.358;2022-12-07T06:52:26;3.90;;;3.58;;
49784;SDS011;35679;38.732;-121.358;2022-12-07T06:55:18;4.97;;;4.35;;
49784;SDS011;35679;38.732;-121.358;2022-12-07T06:58:09;4.25;;;3.70;;
49784;SDS011;35679;38.732;-121.358;2022-12-07T07:01:00;4.53;;;3.90;;
49784;SDS011;35679;38.732;-121.358;2022-12-07T07:03:51;3.80;;;3.50;;
49784;SDS011;35679;38.732;-121.358;2022-12-07T07:06:41;3.80;;;3.50;;
49784;SDS011;35679;38.732;-121.358;2022-12-07T07:09:32;4.28;;;3.83;;
49784;SDS011;35679;38.732;-121.358;2022-12-07T07:12:22;3.92;;;3.63;;
49784;SDS011;35679;38.732;-121.358;2022-12-07T07:15:14;4.43;;;4.03;;
49784;SDS011;35679;38.732;-121.358;2022-12-07T07:18:06;4.85;;;3.90;;
49784;SDS011;35679;38.732;-121.358;2022-12-07T07:20:56;4.10;;;3.70;;
49784;SDS011;35679;38.732;-121.358;2022-12-07T07:23:48;4.40;;;3.70;;
49784;SDS011;35679;38.732;-121.358;2022-12-07T07:26:39;4.25;;;3.85;;
49784;SDS011;35679;38.732;-121.358;2022-12-07T07:29:29;3.72;;;3.42;;
49784;SDS011;35679;38.732;-121.358;2022-12-07T07:32:19;4.78;;;4.03;;
49784;SDS011;35679;38.732;-121.358;2022-12-07T07:35:11;4.20;;;3.80;;
49784;SDS011;35679;38.732;-121.358;2022-12-07T07:38:03;7.20;;;3.85;;
49784;SDS011;35679;38.732;-121.358;2022-12-07T07:40:54;4.00;;;3.63;;
49784;SDS011;35679;38.732;-121.358;2022-12-07T07:43:46;4.63;;;3.80;;
49784;SDS011;35679;38.732;-121.358;2022-12-07T07:46:37;4.70;;;4.03;;
49784;SDS011;35679;38.732;-121.358;2022-12-07T07:49:27;4.43;;;3.95;;
49784;SDS011;35679;38.732;-121.358;2022-12-07T07:52:17;3.85;;;3.55;;
49784;SDS011;35679;38.732;-121.358;2022-12-07T07:55:08;3.95;;;3.70;;
49784;SDS011;35679;38.732;-121.358;2022-12-07T07:58:01;4.13;;;3.63;;
49784;SDS011;35679;38.732;-121.358;2022-12-07T08:00:52;4.30;;;3.90;;
49784;SDS011;35679;38.732;-121.358;2022-12-07T08:03:43;4.47;;;3.95;;
49784;SDS011;35679;38.732;-121.358;2022-12-07T08:06:34;4.15;;;3.53;;
49784;SDS011;35679;38.732;-121.358;2022-12-07T08:09:25;4.18;;;3.78;;
49784;SDS011;35679;38.732;-121.358;2022-12-07T08:12:16;3.95;;;3.65;;
49784;SDS011;35679;38.732;-121.358;2022-12-07T08:15:06;4.03;;;3.72;;
49784;SDS011;35679;38.732;-121.358;2022-12-07T08:17:58;3.80;;;3.60;;
49784;SDS011;35679;38.732;-121.358;2022-12-07T08:20:49;4.10;;;3.80;;
49784;SDS011;35679;38.732;-121.358;2022-12-07T08:23:42;4.13;;;3.80;;
49784;SDS011;35679;38.732;-121.358;2022-12-07T08:26:34;4.07;;;3.67;;
49784;SDS011;35679;38.732;-121.358;2022-12-07T08:29:26;7.07;;;4.32;;
49784;SDS011;35679;38.732;-121.358;2022-12-07T08:32:17;4.38;;;3.97;;
49784;SDS011;35679;38.732;-121.358;2022-12-07T08:35:08;3.97;;;3.65;;
49784;SDS011;35679;38.732;-121.358;2022-12-07T08:37:59;3.90;;;3.60;;
49784;SDS011;35679;38.732;-121.358;2022-12-07T08:40:54;5.05;;;3.78;;
49784;SDS011;35679;38.732;-121.358;2022-12-07T08:43:46;4.45;;;4.03;;
49784;SDS011;35679;38.732;-121.358;2022-12-07T08:46:51;4.80;;;4.40;;
49784;SDS011;35679;38.732;-121.358;2022-12-07T08:49:46;4.18;;;3.83;;
49784;SDS011;35679;38.732;-121.358;2022-12-07T08:52:38;4.45;;;4.05;;
49784;SDS011;35679;38.732;-121.358;2022-12-07T08:55:31;4.35;;;3.95;;
49784;SDS011;35679;38.732;-121.358;2022-12-07T08:58:24;4.28;;;3.88;;
49784;SDS011;35679;38.732;-121.358;2022-12-07T09:01:15;4.43;;;4.00;;
49784;SDS011;35679;38.732;-121.358;2022-12-07T09:04:06;4.30;;;4.00;;
49784;SDS011;35679;38.732;-121.358;2022-12-07T09:06:55;4.28;;;3.85;;
49784;SDS011;35679;38.732;-121.358;2022-12-07T09:09:47;4.22;;;3.80;;
49784;SDS011;35679;38.732;-121.358;2022-12-07T09:12:38;4.78;;;4.38;;
49784;SDS011;35679;38.732;-121.358;2022-12-07T09:15:29;4.88;;;4.47;;
49784;SDS011;35679;38.732;-121.358;2022-12-07T09:18:21;4.20;;;3.83;;
49784;SDS011;35679;38.732;-121.358;2022-12-07T09:21:11;4.75;;;4.13;;
49784;SDS011;35679;38.732;-121.358;2022-12-07T09:24:02;4.25;;;3.85;;
49784;SDS011;35679;38.732;-121.358;2022-12-07T09:26:53;4.45;;;4.07;;
49784;SDS011;35679;38.732;-121.358;2022-12-07T09:29:44;5.32;;;4.30;;
49784;SDS011;35679;38.732;-121.358;2022-12-07T09:32:35;4.60;;;4.20;;
49784;SDS011;35679;38.732;-121.358;2022-12-07T09:35:26;5.20;;;4.15;;
49784;SDS011;35679;38.732;-121.358;2022-12-07T09:38:18;4.50;;;4.05;;
49784;SDS011;35679;38.732;-121.358;2022-12-07T09:41:09;5.70;;;4.75;;
49784;SDS011;35679;38.732;-121.358;2022-12-07T09:44:05;5.07;;;4.53;;
49784;SDS011;35679;38.732;-121.358;2022-12-07T09:46:56;4.68;;;4.28;;
49784;SDS011;35679;38.732;-121.358;2022-12-07T09:49:48;5.18;;;4.65;;
49784;SDS011;35679;38.732;-121.358;2022-12-07T09:52:39;5.95;;;4.97;;
49784;SDS011;35679;38.732;-121.358;2022-12-07T09:55:33;5.43;;;4.53;;
49784;SDS011;35679;38.732;-121.358;2022-12-07T09:58:25;5.47;;;4.97;;
49784;SDS011;35679;38.732;-121.358;2022-12-07T10:01:20;6.72;;;5.05;;
49784;SDS011;35679;38.732;-121.358;2022-12-07T10:07:10;5.03;;;4.55;;
49784;SDS011;35679;38.732;-121.358;2022-12-07T10:10:03;6.18;;;4.80;;
49784;SDS011;35679;38.732;-121.358;2022-12-07T10:13:01;5.18;;;4.68;;
49784;SDS011;35679;38.732;-121.358;2022-12-07T10:15:55;4.22;;;3.92;;
49784;SDS011;35679;38.732;-121.358;2022-12-07T10:18:54;4.70;;;4.20;;
49784;SDS011;35679;38.732;-121.358;2022-12-07T10:22:29;5.38;;;4.75;;
49784;SDS011;35679;38.732;-121.358;2022-12-07T10:25:49;5.45;;;4.93;;
49784;SDS011;35679;38.732;-121.358;2022-12-07T10:28:27;5.20;;;4.70;;
49784;SDS011;35679;38.732;-121.358;2022-12-07T10:31:29;5.32;;;4.82;;
49784;SDS011;35679;38.732;-121.358;2022-12-07T10:34:22;5.32;;;4.45;;
49784;SDS011;35679;38.732;-121.358;2022-12-07T10:37:28;5.28;;;4.57;;
49784;SDS011;35679;38.732;-121.358;2022-12-07T10:40:32;4.85;;;4.45;;
49784;SDS011;35679;38.732;-121.358;2022-12-07T10:43:26;7.43;;;4.97;;
49784;SDS011;35679;38.732;-121.358;2022-12-07T10:46:26;5.07;;;4.57;;
49784;SDS011;35679;38.732;-121.358;2022-12-07T10:55:49;5.15;;;4.70;;
49784;SDS011;35679;38.732;-121.358;2022-12-07T11:05:26;5.47;;;4.97;;
49784;SDS011;35679;38.732;-121.358;2022-12-07T11:08:31;6.13;;;5.53;;
49784;SDS011;35679;38.732;-121.358;2022-12-07T11:14:25;6.85;;;5.10;;
49784;SDS011;35679;38.732;-121.358;2022-12-07T11:23:52;6.13;;;5.13;;
49784;SDS011;35679;38.732;-121.358;2022-12-07T11:30:18;6.10;;;5.50;;
49784;SDS011;35679;38.732;-121.358;2022-12-07T11:36:32;6.00;;;5.20;;
49784;SDS011;35679;38.732;-121.358;2022-12-07T11:39:39;6.75;;;5.55;;
49784;SDS011;35679;38.732;-121.358;2022-12-07T11:42:38;6.60;;;5.47;;
49784;SDS011;35679;38.732;-121.358;2022-12-07T11:45:42;6.18;;;5.28;;
49784;SDS011;35679;38.732;-121.358;2022-12-07T11:51:57;5.50;;;5.00;;
49784;SDS011;35679;38.732;-121.358;2022-12-07T11:54:52;6.30;;;5.63;;
49784;SDS011;35679;38.732;-121.358;2022-12-07T11:57:44;6.18;;;5.50;;
49784;SDS011;35679;38.732;-121.358;2022-12-07T12:00:39;7.80;;;5.50;;
49784;SDS011;35679;38.732;-121.358;2022-12-07T12:03:34;6.13;;;5.53;;
49784;SDS011;35679;38.732;-121.358;2022-12-07T12:06:29;5.85;;;4.82;;
49784;SDS011;35679;38.732;-121.358;2022-12-07T12:09:34;5.97;;;5.38;;
49784;SDS011;35679;38.732;-121.358;2022-12-07T12:12:55;7.55;;;5.40;;
49784;SDS011;35679;38.732;-121.358;2022-12-07T12:19:25;6.10;;;5.25;;
49784;SDS011;35679;38.732;-121.358;2022-12-07T12:22:22;5.97;;;5.40;;
49784;SDS011;35679;38.732;-121.358;2022-12-07T12:25:30;8.98;;;5.38;;
49784;SDS011;35679;38.732;-121.358;2022-12-07T12:31:38;5.63;;;5.20;;
49784;SDS011;35679;38.732;-121.358;2022-12-07T12:34:57;6.38;;;5.65;;
49784;SDS011;35679;38.732;-121.358;2022-12-07T12:37:42;6.38;;;4.90;;
49784;SDS011;35679;38.732;-121.358;2022-12-07T12:40:40;7.32;;;5.45;;
49784;SDS011;35679;38.732;-121.358;2022-12-07T12:44:38;8.27;;;5.80;;
49784;SDS011;35679;38.732;-121.358;2022-12-07T12:50:48;5.65;;;5.05;;
49784;SDS011;35679;38.732;-121.358;2022-12-07T12:53:38;6.38;;;5.40;;
49784;SDS011;35679;38.732;-121.358;2022-12-07T12:56:34;5.55;;;5.05;;
49784;SDS011;35679;38.732;-121.358;2022-12-07T13:02:37;6.05;;;5.18;;
49784;SDS011;35679;38.732;-121.358;2022-12-07T13:05:30;5.40;;;4.90;;
49784;SDS011;35679;38.732;-121.358;2022-12-07T13:08:21;6.18;;;5.55;;
49784;SDS011;35679;38.732;-121.358;2022-12-07T13:11:41;6.15;;;5.40;;
49784;SDS011;35679;38.732;-121.358;2022-12-07T13:20:39;5.65;;;5.15;;
49784;SDS011;35679;38.732;-121.358;2022-12-07T13:26:43;5.63;;;4.93;;
49784;SDS011;35679;38.732;-121.358;2022-12-07T13:29:36;5.75;;;5.25;;
49784;SDS011;35679;38.732;-121.358;2022-12-07T13:32:28;7.00;;;5.65;;
49784;SDS011;35679;38.732;-121.358;2022-12-07T13:35:34;6.20;;;5.65;;
49784;SDS011;35679;38.732;-121.358;2022-12-07T13:38:33;6.18;;;5.22;;
49784;SDS011;35679;38.732;-121.358;2022-12-07T13:41:27;6.43;;;5.13;;
49784;SDS011;35679;38.732;-121.358;2022-12-07T13:44:19;5.75;;;5.25;;
49784;SDS011;35679;38.732;-121.358;2022-12-07T13:47:15;6.03;;;5.38;;
49784;SDS011;35679;38.732;-121.358;2022-12-07T13:53:46;5.25;;;4.75;;
49784;SDS011;35679;38.732;-121.358;2022-12-07T13:56:41;5.60;;;5.10;;
49784;SDS011;35679;38.732;-121.358;2022-12-07T13:59:31;5.38;;;4.82;;
49784;SDS011;35679;38.732;-121.358;2022-12-07T14:02:31;6.18;;;5.57;;
49784;SDS011;35679;38.732;-121.358;2022-12-07T14:05:31;6.00;;;5.40;;
49784;SDS011;35679;38.732;-121.358;2022-12-07T14:08:22;6.22;;;5.63;;
49784;SDS011;35679;38.732;-121.358;2022-12-07T14:11:14;6.35;;;5.45;;
49784;SDS011;35679;38.732;-121.358;2022-12-07T14:14:10;5.93;;;5.30;;
49784;SDS011;35679;38.732;-121.358;2022-12-07T14:20:31;6.30;;;5.30;;
49784;SDS011;35679;38.732;-121.358;2022-12-07T14:23:25;5.72;;;5.18;;
49784;SDS011;35679;38.732;-121.358;2022-12-07T14:26:20;6.18;;;5.57;;
49784;SDS011;35679;38.732;-121.358;2022-12-07T14:29:21;5.80;;;4.82;;
49784;SDS011;35679;38.732;-121.358;2022-12-07T14:32:23;5.45;;;5.05;;
49784;SDS011;35679;38.732;-121.358;2022-12-07T14:35:18;6.50;;;4.93;;
49784;SDS011;35679;38.732;-121.358;2022-12-07T14:38:09;5.90;;;5.30;;
49784;SDS011;35679;38.732;-121.358;2022-12-07T14:41:00;5.80;;;5.22;;
49784;SDS011;35679;38.732;-121.358;2022-12-07T14:44:12;5.55;;;5.00;;
49784;SDS011;35679;38.732;-121.358;2022-12-07T14:47:14;6.20;;;5.57;;
49784;SDS011;35679;38.732;-121.358;2022-12-07T14:50:25;5.20;;;4.75;;
49784;SDS011;35679;38.732;-121.358;2022-12-07T14:53:17;5.75;;;5.15;;
49784;SDS011;35679;38.732;-121.358;2022-12-07T14:56:19;5.47;;;4.97;;
49784;SDS011;35679;38.732;-121.358;2022-12-07T14:59:10;5.93;;;5.32;;
49784;SDS011;35679;38.732;-121.358;2022-12-07T15:02:00;7.03;;;5.50;;
49784;SDS011;35679;38.732;-121.358;2022-12-07T15:04:50;5.80;;;5.20;;
49784;SDS011;35679;38.732;-121.358;2022-12-07T15:07:40;5.75;;;5.15;;
49784;SDS011;35679;38.732;-121.358;2022-12-07T15:10:32;5.28;;;4.85;;
49784;SDS011;35679;38.732;-121.358;2022-12-07T15:13:28;6.45;;;4.93;;
49784;SDS011;35679;38.732;-121.358;2022-12-07T15:16:36;7.47;;;4.78;;
49784;SDS011;35679;38.732;-121.358;2022-12-07T15:19:51;6.57;;;5.35;;
49784;SDS011;35679;38.732;-121.358;2022-12-07T15:22:42;6.40;;;5.25;;
49784;SDS011;35679;38.732;-121.358;2022-12-07T15:25:32;6.88;;;5.00;;
49784;SDS011;35679;38.732;-121.358;2022-12-07T15:28:23;5.85;;;4.75;;
49784;SDS011;35679;38.732;-121.358;2022-12-07T15:31:15;5.30;;;4.80;;
49784;SDS011;35679;38.732;-121.358;2022-12-07T15:34:27;5.50;;;4.93;;
49784;SDS011;35679;38.732;-121.358;2022-12-07T15:37:26;6.47;;;4.97;;
49784;SDS011;35679;38.732;-121.358;2022-12-07T15:40:17;6.53;;;4.63;;
49784;SDS011;35679;38.732;-121.358;2022-12-07T15:43:10;5.65;;;4.88;;
49784;SDS011;35679;38.732;-121.358;2022-12-07T15:46:21;6.07;;;5.07;;
49784;SDS011;35679;38.732;-121.358;2022-12-07T15:49:15;6.13;;;4.80;;
49784;SDS011;35679;38.732;-121.358;2022-12-07T15:52:07;5.07;;;4.63;;
49784;SDS011;35679;38.732;-121.358;2022-12-07T15:54:57;5.00;;;4.50;;
49784;SDS011;35679;38.732;-121.358;2022-12-07T15:57:49;5.85;;;4.97;;
49784;SDS011;35679;38.732;-121.358;2022-12-07T16:00:39;5.30;;;4.80;;
49784;SDS011;35679;38.732;-121.358;2022-12-07T16:03:30;5.95;;;5.40;;
49784;SDS011;35679;38.732;-121.358;2022-12-07T16:06:20;5.40;;;4.90;;
49784;SDS011;35679;38.732;-121.358;2022-12-07T16:09:10;5.18;;;4.60;;
49784;SDS011;35679;38.732;-121.358;2022-12-07T16:12:00;5.50;;;5.00;;
49784;SDS011;35679;38.732;-121.358;2022-12-07T16:14:50;4.97;;;4.55;;
49784;SDS011;35679;38.732;-121.358;2022-12-07T16:17:40;5.05;;;4.47;;
49784;SDS011;35679;38.732;-121.358;2022-12-07T16:20:31;5.75;;;4.38;;
49784;SDS011;35679;38.732;-121.358;2022-12-07T16:23:21;5.22;;;4.72;;
49784;SDS011;35679;38.732;-121.358;2022-12-07T16:26:13;5.93;;;5.20;;
49784;SDS011;35679;38.732;-121.358;2022-12-07T16:29:05;5.13;;;4.63;;
49784;SDS011;35679;38.732;-121.358;2022-12-07T16:31:55;5.95;;;4.65;;
49784;SDS011;35679;38.732;-121.358;2022-12-07T16:34:46;5.07;;;4.57;;
49784;SDS011;35679;38.732;-121.358;2022-12-07T16:37:37;5.82;;;4.97;;
49784;SDS011;35679;38.732;-121.358;2022-12-07T16:40:27;5.03;;;4.53;;
49784;SDS011;35679;38.732;-121.358;2022-12-07T16:43:17;5.30;;;4.80;;
49784;SDS011;35679;38.732;-121.358;2022-12-07T16:46:09;4.88;;;4.47;;
49784;SDS011;35679;38.732;-121.358;2022-12-07T16:48:59;5.18;;;4.70;;
49784;SDS011;35679;38.732;-121.358;2022-12-07T16:51:50;5.57;;;4.57;;
49784;SDS011;35679;38.732;-121.358;2022-12-07T16:55:01;4.78;;;4.28;;
49784;SDS011;35679;38.732;-121.358;2022-12-07T16:57:51;5.22;;;4.45;;
49784;SDS011;35679;38.732;-121.358;2022-12-07T17:00:42;5.57;;;5.03;;
49784;SDS011;35679;38.732;-121.358;2022-12-07T17:03:32;5.28;;;4.75;;
49784;SDS011;35679;38.732;-121.358;2022-12-07T17:06:24;5.55;;;4.53;;
49784;SDS011;35679;38.732;-121.358;2022-12-07T17:09:15;6.07;;;4.80;;
49784;SDS011;35679;38.732;-121.358;2022-12-07T17:12:08;5.67;;;4.80;;
49784;SDS011;35679;38.732;-121.358;2022-12-07T17:14:58;5.43;;;4.95;;
49784;SDS011;35679;38.732;-121.358;2022-12-07T17:18:06;4.88;;;4.47;;
49784;SDS011;35679;38.732;-121.358;2022-12-07T17:21:01;4.80;;;4.20;;
49784;SDS011;35679;38.732;-121.358;2022-12-07T17:23:58;5.25;;;4.35;;
49784;SDS011;35679;38.732;-121.358;2022-12-07T17:26:52;5.60;;;4.28;;
49784;SDS011;35679;38.732;-121.358;2022-12-07T17:29:42;4.72;;;4.22;;
49784;SDS011;35679;38.732;-121.358;2022-12-07T17:32:33;5.32;;;4.43;;
49784;SDS011;35679;38.732;-121.358;2022-12-07T17:35:24;5.63;;;4.70;;
49784;SDS011;35679;38.732;-121.358;2022-12-07T17:38:14;5.45;;;4.75;;
49784;SDS011;35679;38.732;-121.358;2022-12-07T17:41:11;4.55;;;4.15;;
49784;SDS011;35679;38.732;-121.358;2022-12-07T17:44:23;4.40;;;3.97;;
49784;SDS011;35679;38.732;-121.358;2022-12-07T17:47:14;4.75;;;4.28;;
49784;SDS011;35679;38.732;-121.358;2022-12-07T17:50:07;4.72;;;4.32;;
49784;SDS011;35679;38.732;-121.358;2022-12-07T17:52:58;5.50;;;4.72;;
49784;SDS011;35679;38.732;-121.358;2022-12-07T17:56:00;6.03;;;4.47;;
49784;SDS011;35679;38.732;-121.358;2022-12-07T17:59:11;5.07;;;4.57;;
49784;SDS011;35679;38.732;-121.358;2022-12-07T18:02:01;4.90;;;4.40;;